createdAt,value
2019-03-22T00:00:28.172Z,73.82
2019-03-22T00:03:00.958Z,73.84
2019-03-22T00:05:31.975Z,73.93
2019-03-22T00:08:05.277Z,74.50
2019-03-22T00:10:36.463Z,73.95
2019-03-22T00:13:07.585Z,74.12
2019-03-22T00:15:40.847Z,73.98
2019-03-22T00:18:11.993Z,74.12
2019-03-22T00:20:43.202Z,74.45
2019-03-22T00:23:14.408Z,74.63
2019-03-22T00:25:45.580Z,74.02
2019-03-22T00:28:24.912Z,74.51
2019-03-22T00:31:26.160Z,74.85
2019-03-22T00:33:57.294Z,75.15
2019-03-22T00:36:35.056Z,74.91
2019-03-22T00:39:07.108Z,74.70
2019-03-22T00:41:43.242Z,75.04
2019-03-22T00:44:15.427Z,74.82
2019-03-22T00:46:46.626Z,75.43
2019-03-22T00:49:17.750Z,75.36
2019-03-22T00:51:48.985Z,75.18
2019-03-22T00:54:20.098Z,75.20
2019-03-22T00:56:51.228Z,75.53
2019-03-22T00:59:22.438Z,75.23
2019-03-22T01:01:53.708Z,75.03
2019-03-22T01:04:24.832Z,75.61
2019-03-22T01:06:56.071Z,75.29
2019-03-22T01:09:27.462Z,75.79
2019-03-22T01:11:58.601Z,75.18
2019-03-22T01:14:55.286Z,75.57
2019-03-22T01:17:26.499Z,76.03
2019-03-22T01:19:57.640Z,75.78
2019-03-22T01:22:33.481Z,76.18
2019-03-22T01:25:05.658Z,76.17
2019-03-22T01:27:40.868Z,76.14
2019-03-22T01:30:20.046Z,75.90
2019-03-22T01:32:51.184Z,76.04
2019-03-22T01:35:22.295Z,75.75
2019-03-22T01:38:10.316Z,75.87
2019-03-22T01:40:41.561Z,76.37
2019-03-22T01:43:12.771Z,75.62
2019-03-22T01:45:43.903Z,75.99
2019-03-22T01:48:15.099Z,75.88
2019-03-22T01:50:46.268Z,75.90
2019-03-22T01:53:17.297Z,76.04
2019-03-22T01:55:54.186Z,75.56
2019-03-22T01:58:25.289Z,75.73
2019-03-22T02:00:56.538Z,75.51
2019-03-22T02:03:27.719Z,75.50
2019-03-22T02:06:04.440Z,75.76
2019-03-22T02:08:35.605Z,75.47
2019-03-22T02:11:21.424Z,75.59
2019-03-22T02:14:03.776Z,75.59
2019-03-22T02:16:40.813Z,75.32
2019-03-22T02:19:11.943Z,75.25
2019-03-22T02:21:43.876Z,75.78
2019-03-22T02:24:15.014Z,76.18
2019-03-22T02:27:00.684Z,76.13
2019-03-22T02:29:31.909Z,76.29
2019-03-22T02:32:13.267Z,76.30
2019-03-22T02:34:44.443Z,75.92
2019-03-22T02:37:15.625Z,76.17
2019-03-22T02:39:47.081Z,75.86
2019-03-22T02:42:18.283Z,76.05
2019-03-22T02:44:49.402Z,76.14
2019-03-22T02:47:20.605Z,76.55
2019-03-22T02:50:11.686Z,76.27
2019-03-22T02:52:34.762Z,76.17
2019-03-22T02:55:06.498Z,76.22
2019-03-22T02:57:37.814Z,76.35
2019-03-22T03:00:10.349Z,76.10
2019-03-22T03:02:41.609Z,76.32
2019-03-22T03:05:12.880Z,76.34
2019-03-22T03:07:44.277Z,76.30
2019-03-22T03:10:15.608Z,76.20
2019-03-22T03:13:03.117Z,76.13
2019-03-22T03:15:34.331Z,76.14
2019-03-22T03:18:05.455Z,75.96
2019-03-22T03:20:37.954Z,76.32
2019-03-22T03:23:09.082Z,75.98
2019-03-22T03:25:40.302Z,76.08
2019-03-22T03:28:11.500Z,75.61
2019-03-22T03:30:42.711Z,75.63
2019-03-22T03:33:13.960Z,76.15
2019-03-22T03:35:45.096Z,76.42
2019-03-22T03:38:16.270Z,76.68
2019-03-22T03:40:54.470Z,76.72
2019-03-22T03:43:25.591Z,76.77
2019-03-22T03:45:56.810Z,76.80
2019-03-22T03:48:40.358Z,76.76
2019-03-22T03:51:14.832Z,76.70
2019-03-22T03:53:45.869Z,76.82
2019-03-22T03:56:17.111Z,76.87
2019-03-22T03:58:52.778Z,76.25
2019-03-22T04:01:21.147Z,76.06
2019-03-22T04:03:54.325Z,76.45
2019-03-22T04:06:25.857Z,76.37
2019-03-22T04:08:56.897Z,76.04
2019-03-22T04:11:28.098Z,76.59
2019-03-22T04:14:05.464Z,76.22
2019-03-22T04:16:44.569Z,76.72
2019-03-22T04:19:15.675Z,76.88
2019-03-22T04:21:46.788Z,76.69
2019-03-22T04:24:17.927Z,76.80
2019-03-22T04:26:49.134Z,76.40
2019-03-22T04:29:20.321Z,76.65
2019-03-22T04:31:51.396Z,76.27
2019-03-22T04:34:22.604Z,76.49
2019-03-22T04:36:58.910Z,76.36
2019-03-22T04:39:30.192Z,75.82
2019-03-22T04:42:02.455Z,76.51
2019-03-22T04:45:00.698Z,76.73
2019-03-22T04:47:33.115Z,77.18
2019-03-22T04:50:04.838Z,77.21
2019-03-22T04:52:35.972Z,76.93
2019-03-22T04:55:07.440Z,76.87
2019-03-22T04:57:49.438Z,76.89
2019-03-22T05:00:20.809Z,76.93
2019-03-22T05:02:52.239Z,76.53
2019-03-22T05:05:23.764Z,76.23
2019-03-22T05:07:54.905Z,76.27
2019-03-22T05:10:32.029Z,76.67
2019-03-22T05:13:05.772Z,77.11
2019-03-22T05:15:37.979Z,77.54
2019-03-22T05:18:09.520Z,77.16
2019-03-22T05:20:49.102Z,76.54
2019-03-22T05:23:25.360Z,77.33
2019-03-22T05:25:58.151Z,76.97
2019-03-22T05:28:39.229Z,76.90
2019-03-22T05:31:46.194Z,76.39
2019-03-22T05:34:17.380Z,76.78
2019-03-22T05:36:48.491Z,76.64
2019-03-22T05:39:19.640Z,76.49
2019-03-22T05:41:50.792Z,75.59
2019-03-22T05:44:21.972Z,76.15
2019-03-22T05:47:00.350Z,76.59
2019-03-22T05:49:33.602Z,75.73
2019-03-22T05:52:06.049Z,75.89
2019-03-22T05:54:37.248Z,75.40
2019-03-22T05:57:13.214Z,75.75
2019-03-22T05:59:44.829Z,75.43
2019-03-22T06:02:20.747Z,75.06
2019-03-22T06:04:55.597Z,75.35
2019-03-22T06:07:30.849Z,75.68
2019-03-22T06:10:22.068Z,75.60
2019-03-22T06:13:00.724Z,75.20
2019-03-22T06:15:41.684Z,75.30
2019-03-22T06:18:24.635Z,75.08
2019-03-22T06:20:55.917Z,75.43
2019-03-22T06:23:37.264Z,74.62
2019-03-22T06:26:13.123Z,74.58
2019-03-22T06:28:47.471Z,74.59
2019-03-22T06:31:20.857Z,73.72
2019-03-22T06:33:53.130Z,73.84
2019-03-22T06:36:24.357Z,74.37
2019-03-22T06:39:01.474Z,73.24
2019-03-22T06:41:33.621Z,72.50
2019-03-22T06:44:11.828Z,72.55
2019-03-22T06:46:42.995Z,72.20
2019-03-22T06:49:15.130Z,70.86
2019-03-22T06:51:46.469Z,71.20
2019-03-22T06:54:17.607Z,71.35
2019-03-22T06:56:48.853Z,70.81
2019-03-22T06:59:20.091Z,70.70
2019-03-22T07:02:00.654Z,69.87
2019-03-22T07:04:33.863Z,68.91
2019-03-22T07:07:05.156Z,68.33
2019-03-22T07:09:49.479Z,67.43
2019-03-22T07:12:20.716Z,67.63
2019-03-22T07:14:51.880Z,66.88
2019-03-22T07:17:26.913Z,66.86
2019-03-22T07:19:59.085Z,66.17
2019-03-22T07:22:40.820Z,66.43
2019-03-22T07:25:12.226Z,67.33
2019-03-22T07:27:43.348Z,66.55
2019-03-22T07:30:18.867Z,66.29
2019-03-22T07:33:01.146Z,66.15
2019-03-22T07:35:32.389Z,65.59
2019-03-22T07:38:16.717Z,64.91
2019-03-22T07:41:05.876Z,64.88
2019-03-22T07:43:37.057Z,63.26
2019-03-22T07:46:08.186Z,63.07
2019-03-22T07:48:39.316Z,63.21
2019-03-22T07:51:19.361Z,62.59
2019-03-22T07:54:07.318Z,61.66
2019-03-22T07:57:03.021Z,59.94
2019-03-22T07:59:34.068Z,58.91
2019-03-22T08:02:09.363Z,58.09
2019-03-22T08:04:49.556Z,57.47
2019-03-22T08:07:20.715Z,57.22
2019-03-22T08:10:08.422Z,57.47
2019-03-22T08:12:39.612Z,56.70
2019-03-22T08:15:11.129Z,56.72
2019-03-22T08:17:44.416Z,58.04
2019-03-22T08:20:15.608Z,56.78
2019-03-22T08:22:46.845Z,56.17
2019-03-22T08:25:18.129Z,56.21
2019-03-22T08:27:49.386Z,55.99
2019-03-22T08:30:20.569Z,56.69
2019-03-22T08:32:53.765Z,56.53
2019-03-22T08:35:24.959Z,56.19
2019-03-22T08:37:59.246Z,56.37
2019-03-22T08:40:30.442Z,55.93
2019-03-22T08:43:31.542Z,55.70
2019-03-22T08:46:02.691Z,54.78
2019-03-22T08:48:33.948Z,54.97
2019-03-22T08:51:05.250Z,55.41
2019-03-22T08:53:54.667Z,54.67
2019-03-22T08:56:16.969Z,55.27
2019-03-22T08:58:54.033Z,53.80
2019-03-22T09:01:25.296Z,53.52
2019-03-22T09:03:57.543Z,53.89
2019-03-22T09:06:28.706Z,52.91
2019-03-22T09:09:01.808Z,53.14
2019-03-22T09:11:34.079Z,51.76
2019-03-22T09:14:07.261Z,52.13
2019-03-22T09:16:39.502Z,50.38
2019-03-22T09:19:12.722Z,50.87
2019-03-22T09:21:46.015Z,50.10
2019-03-22T09:24:38.556Z,49.08
2019-03-22T09:26:59.560Z,47.94
2019-03-22T09:29:31.731Z,47.70
2019-03-22T09:32:06.436Z,47.71
2019-03-22T09:34:37.611Z,46.99
2019-03-22T09:37:09.052Z,46.15
2019-03-22T09:39:40.606Z,46.60
2019-03-22T09:42:12.969Z,46.15
2019-03-22T09:45:02.615Z,46.68
2019-03-22T09:47:34.992Z,45.67
2019-03-22T09:50:07.585Z,45.51
2019-03-22T09:52:42.522Z,45.33
2019-03-22T09:55:24.871Z,44.73
2019-03-22T09:57:59.674Z,44.74
2019-03-22T10:00:40.053Z,44.63
2019-03-22T10:03:11.305Z,44.22
2019-03-22T10:05:51.740Z,43.58
2019-03-22T10:08:22.981Z,42.47
2019-03-22T10:10:59.831Z,42.47
2019-03-22T10:13:35.629Z,42.29
2019-03-22T10:16:13.821Z,42.35
2019-03-22T10:18:44.910Z,41.62
2019-03-22T10:21:22.396Z,40.25
2019-03-22T10:23:50.164Z,40.77
2019-03-22T10:26:21.277Z,41.28
2019-03-22T10:28:52.565Z,39.80
2019-03-22T10:31:36.212Z,39.83
2019-03-22T10:33:56.626Z,40.32
2019-03-22T10:36:28.881Z,39.14
2019-03-22T10:39:00.103Z,39.14
2019-03-22T10:42:02.258Z,38.66
2019-03-22T10:44:33.476Z,37.84
2019-03-22T10:47:04.645Z,38.98
2019-03-22T10:49:41.895Z,39.35
2019-03-22T10:52:13.072Z,37.60
2019-03-22T10:54:47.817Z,38.07
2019-03-22T10:57:20.136Z,38.13
2019-03-22T10:59:55.216Z,38.98
2019-03-22T11:02:26.479Z,37.65
2019-03-22T11:04:57.795Z,37.43
2019-03-22T11:07:33.665Z,37.54
2019-03-22T11:10:07.313Z,36.63
2019-03-22T11:12:47.648Z,37.02
2019-03-22T11:15:18.906Z,36.47
2019-03-22T11:17:50.237Z,36.46
2019-03-22T11:20:39.854Z,37.21
2019-03-22T11:23:12.066Z,37.31
2019-03-22T11:25:43.163Z,36.84
2019-03-22T11:28:14.340Z,36.76
2019-03-22T11:30:47.571Z,36.65
2019-03-22T11:33:18.749Z,37.14
2019-03-22T11:36:03.796Z,37.17
2019-03-22T11:38:39.299Z,36.53
2019-03-22T11:41:20.003Z,36.90
2019-03-22T11:44:04.516Z,37.69
2019-03-22T11:46:39.103Z,35.85
2019-03-22T11:49:10.335Z,35.97
2019-03-22T11:51:41.608Z,34.49
2019-03-22T11:54:12.783Z,35.24
2019-03-22T11:56:44.029Z,34.69
2019-03-22T11:59:21.390Z,34.56
2019-03-22T12:01:52.558Z,34.39
2019-03-22T12:04:25.815Z,34.53
2019-03-22T12:06:57.033Z,34.79
2019-03-22T12:09:28.218Z,33.85
2019-03-22T12:11:59.377Z,34.45
2019-03-22T12:14:30.626Z,34.26
2019-03-22T12:17:01.833Z,33.24
2019-03-22T12:19:33.235Z,32.82
2019-03-22T12:22:05.640Z,33.35
2019-03-22T12:24:36.785Z,33.13
2019-03-22T12:27:07.926Z,32.87
2019-03-22T12:29:40.192Z,33.38
2019-03-22T12:32:36.074Z,32.69
2019-03-22T12:35:07.641Z,32.25
2019-03-22T12:37:54.073Z,33.13
2019-03-22T12:40:25.288Z,31.77
2019-03-22T12:42:57.438Z,33.46
2019-03-22T12:45:28.886Z,33.02
2019-03-22T12:48:06.260Z,31.73
2019-03-22T12:50:37.504Z,32.39
2019-03-22T12:53:08.730Z,32.94
2019-03-22T12:55:40.007Z,32.39
2019-03-22T12:58:18.104Z,32.81
2019-03-22T13:00:49.309Z,32.09
2019-03-22T13:03:24.312Z,32.02
2019-03-22T13:05:55.554Z,32.28
2019-03-22T13:08:34.743Z,32.32
2019-03-22T13:11:06.418Z,32.09
2019-03-22T13:13:37.528Z,33.06
2019-03-22T13:16:08.664Z,33.31
2019-03-22T13:18:49.614Z,32.85
2019-03-22T13:21:12.752Z,33.01
2019-03-22T13:23:59.328Z,33.20
2019-03-22T13:26:30.539Z,33.35
2019-03-22T13:29:01.697Z,33.51
2019-03-22T13:31:32.983Z,33.54
2019-03-22T13:34:05.216Z,33.76
2019-03-22T13:36:37.712Z,34.00
2019-03-22T13:39:09.315Z,33.40
2019-03-22T13:41:51.849Z,33.62
2019-03-22T13:44:23.061Z,33.72
2019-03-22T13:47:15.750Z,34.37
2019-03-22T13:49:46.903Z,34.18
2019-03-22T13:52:18.049Z,34.55
2019-03-22T13:54:49.196Z,34.59
2019-03-22T13:57:20.366Z,34.64
2019-03-22T13:59:51.541Z,33.69
2019-03-22T14:02:34.294Z,34.79
2019-03-22T14:05:06.821Z,34.80
2019-03-22T14:07:41.860Z,34.75
2019-03-22T14:10:28.001Z,34.06
2019-03-22T14:13:11.449Z,34.21
2019-03-22T14:15:42.584Z,33.57
2019-03-22T14:18:39.661Z,33.89
2019-03-22T14:21:10.841Z,33.83
2019-03-22T14:23:51.211Z,33.42
2019-03-22T14:26:22.354Z,33.60
2019-03-22T14:28:53.525Z,33.22
2019-03-22T14:31:50.538Z,33.18
2019-03-22T14:34:35.488Z,33.24
2019-03-22T14:37:11.702Z,32.44
2019-03-22T14:39:42.834Z,32.00
2019-03-22T14:42:16.166Z,32.04
2019-03-22T14:44:47.281Z,32.01
2019-03-22T14:47:18.478Z,32.38
2019-03-22T14:49:49.697Z,31.58
2019-03-22T14:52:20.783Z,32.10
2019-03-22T14:54:59.991Z,31.59
2019-03-22T14:57:48.057Z,31.48
2019-03-22T15:00:11.727Z,31.28
2019-03-22T15:02:42.944Z,31.11
2019-03-22T15:05:24.456Z,30.48
2019-03-22T15:07:57.638Z,29.79
2019-03-22T15:10:28.859Z,29.34
2019-03-22T15:13:00.251Z,29.06
2019-03-22T15:15:50.524Z,28.59
2019-03-22T15:18:38.012Z,29.52
2019-03-22T15:21:42.202Z,28.63
2019-03-22T15:24:29.914Z,28.58
2019-03-22T15:27:18.935Z,28.59
2019-03-22T15:29:57.735Z,28.89
2019-03-22T15:33:16.454Z,29.19
2019-03-22T15:35:49.396Z,29.01
2019-03-22T15:38:39.624Z,28.76
2019-03-22T15:41:27.142Z,28.28
2019-03-22T15:43:58.308Z,29.32
2019-03-22T15:46:31.444Z,29.10
2019-03-22T15:49:02.659Z,29.19
2019-03-22T15:51:42.753Z,29.74
2019-03-22T15:54:14.029Z,29.06
2019-03-22T15:56:47.186Z,28.95
2019-03-22T15:59:18.365Z,29.03
2019-03-22T16:01:54.049Z,29.93
2019-03-22T16:04:25.333Z,29.42
2019-03-22T16:06:56.459Z,29.05
2019-03-22T16:09:27.634Z,29.23
2019-03-22T16:11:58.870Z,29.01
2019-03-22T16:14:30.158Z,29.02
2019-03-22T16:17:02.474Z,29.27
2019-03-22T16:19:33.727Z,29.22
2019-03-22T16:22:05.227Z,29.48
2019-03-22T16:24:36.431Z,29.45
2019-03-22T16:27:07.896Z,29.16
2019-03-22T16:29:45.987Z,29.79
2019-03-22T16:32:17.483Z,29.41
2019-03-22T16:34:49.728Z,30.17
2019-03-22T16:37:21.100Z,29.63
2019-03-22T16:39:59.488Z,29.92
2019-03-22T16:42:30.620Z,29.85
2019-03-22T16:45:13.957Z,29.88
2019-03-22T16:47:45.103Z,29.87
2019-03-22T16:50:24.659Z,30.19
2019-03-22T16:53:01.492Z,29.70
2019-03-22T16:55:33.780Z,29.45
2019-03-22T16:58:10.834Z,29.95
2019-03-22T17:00:42.027Z,29.76
2019-03-22T17:03:22.704Z,29.87
2019-03-22T17:06:10.432Z,29.85
2019-03-22T17:09:01.070Z,29.68
2019-03-22T17:11:39.957Z,29.65
2019-03-22T17:14:21.821Z,30.29
2019-03-22T17:16:54.194Z,29.48
2019-03-22T17:19:26.569Z,30.34
2019-03-22T17:22:08.906Z,30.54
2019-03-22T17:24:40.108Z,30.76
2019-03-22T17:27:19.646Z,30.85
2019-03-22T17:29:55.379Z,31.23
2019-03-22T17:32:32.571Z,31.80
2019-03-22T17:35:06.467Z,32.84
2019-03-22T17:37:50.911Z,31.73
2019-03-22T17:40:22.282Z,31.90
2019-03-22T17:42:53.482Z,32.03
2019-03-22T17:45:30.466Z,32.45
2019-03-22T17:48:10.578Z,32.82
2019-03-22T17:50:46.986Z,33.20
2019-03-22T17:53:27.880Z,33.55
2019-03-22T17:55:59.456Z,33.80
2019-03-22T17:58:34.736Z,33.78
2019-03-22T18:01:07.329Z,34.93
2019-03-22T18:03:44.686Z,35.85
2019-03-22T18:06:15.997Z,36.01
2019-03-22T18:08:47.483Z,36.33
2019-03-22T18:11:19.206Z,37.20
2019-03-22T18:13:51.514Z,37.86
2019-03-22T18:16:28.794Z,38.87
2019-03-22T18:19:00.138Z,38.71
2019-03-22T18:21:36.869Z,38.91
2019-03-22T18:24:10.087Z,38.95
2019-03-22T18:26:52.797Z,39.27
2019-03-22T18:29:29.613Z,39.77
2019-03-22T18:32:05.145Z,40.66
2019-03-22T18:34:37.634Z,40.30
2019-03-22T18:37:15.267Z,41.36
2019-03-22T18:39:47.451Z,41.27
2019-03-22T18:42:28.025Z,41.71
2019-03-22T18:45:07.577Z,42.27
2019-03-22T18:47:40.597Z,42.64
2019-03-22T18:50:16.918Z,42.83
2019-03-22T18:52:48.400Z,42.52
2019-03-22T18:55:19.665Z,43.08
2019-03-22T18:57:55.436Z,43.53
2019-03-22T19:00:31.969Z,43.25
2019-03-22T19:03:03.403Z,43.53
2019-03-22T19:05:40.768Z,43.68
2019-03-22T19:08:16.311Z,44.24
2019-03-22T19:10:49.622Z,44.74
2019-03-22T19:13:30.326Z,45.08
2019-03-22T19:15:54.533Z,45.50
2019-03-22T19:18:29.008Z,45.73
2019-03-22T19:21:00.328Z,45.77
2019-03-22T19:23:31.652Z,46.95
2019-03-22T19:26:07.178Z,46.49
2019-03-22T19:28:38.544Z,46.54
2019-03-22T19:31:20.182Z,46.07
2019-03-22T19:33:55.141Z,47.56
2019-03-22T19:36:26.651Z,48.16
2019-03-22T19:38:58.413Z,47.80
2019-03-22T19:41:47.298Z,48.39
2019-03-22T19:44:22.316Z,48.03
2019-03-22T19:47:04.224Z,48.39
2019-03-22T19:49:35.818Z,48.18
2019-03-22T19:52:08.618Z,47.81
2019-03-22T19:54:46.896Z,48.03
2019-03-22T19:57:27.497Z,48.70
2019-03-22T19:59:59.322Z,48.73
2019-03-22T20:02:34.943Z,49.63
2019-03-22T20:05:10.723Z,49.96
2019-03-22T20:07:45.389Z,50.36
2019-03-22T20:10:22.194Z,49.87
2019-03-22T20:12:53.469Z,49.92
2019-03-22T20:15:34.875Z,50.30
2019-03-22T20:18:06.314Z,49.74
2019-03-22T20:20:37.615Z,49.51
2019-03-22T20:23:22.310Z,49.68
2019-03-22T20:26:00.501Z,50.05
2019-03-22T20:28:31.840Z,50.06
2019-03-22T20:31:03.417Z,50.96
2019-03-22T20:33:41.696Z,50.93
2019-03-22T20:36:14.305Z,50.21
2019-03-22T20:38:45.662Z,52.00
2019-03-22T20:41:18.238Z,52.05
2019-03-22T20:43:49.773Z,51.87
2019-03-22T20:46:23.445Z,51.16
2019-03-22T20:48:57.936Z,51.08
2019-03-22T20:51:34.736Z,51.42
2019-03-22T20:54:06.329Z,50.20
2019-03-22T20:56:42.529Z,49.91
2019-03-22T20:59:15.681Z,50.90
2019-03-22T21:01:52.204Z,50.61
2019-03-22T21:04:33.109Z,51.50
2019-03-22T21:07:08.669Z,51.47
2019-03-22T21:09:43.706Z,52.45
2019-03-22T21:12:22.933Z,52.38
2019-03-22T21:14:54.439Z,53.07
2019-03-22T21:17:26.538Z,53.35
2019-03-22T21:20:02.616Z,52.93
2019-03-22T21:22:47.349Z,53.48
2019-03-22T21:25:23.758Z,53.15
2019-03-22T21:27:55.017Z,53.82
2019-03-22T21:30:28.210Z,53.47
2019-03-22T21:33:01.420Z,53.66
2019-03-22T21:35:39.088Z,53.96
2019-03-22T21:38:11.380Z,53.68
2019-03-22T21:40:48.035Z,53.96
2019-03-22T21:43:32.303Z,53.83
2019-03-22T21:46:03.708Z,53.70
2019-03-22T21:48:44.911Z,53.41
2019-03-22T21:51:16.247Z,54.01
2019-03-22T21:53:47.671Z,53.97
2019-03-22T21:56:23.905Z,54.20
2019-03-22T21:58:56.446Z,54.42
2019-03-22T22:01:40.790Z,54.10
2019-03-22T22:04:12.400Z,55.06
2019-03-22T22:07:04.612Z,55.48
2019-03-22T22:09:36.111Z,54.70
2019-03-22T22:12:09.353Z,54.71
2019-03-22T22:14:41.267Z,55.38
2019-03-22T22:17:14.767Z,55.24
2019-03-22T22:19:51.178Z,55.06
2019-03-22T22:22:31.733Z,55.38
2019-03-22T22:25:18.323Z,55.13
2019-03-22T22:27:50.067Z,55.34
2019-03-22T22:30:21.792Z,55.70
2019-03-22T22:32:54.144Z,55.89
2019-03-22T22:35:25.444Z,56.05
2019-03-22T22:38:08.609Z,56.59
2019-03-22T22:40:39.854Z,56.26
2019-03-22T22:43:11.084Z,56.85
2019-03-22T22:45:46.006Z,56.64
2019-03-22T22:48:17.572Z,56.92
2019-03-22T22:50:49.055Z,57.09
2019-03-22T22:53:20.307Z,57.89
2019-03-22T22:55:52.595Z,57.09
2019-03-22T22:58:23.749Z,56.92
2019-03-22T23:00:56.212Z,56.79
2019-03-22T23:03:41.003Z,57.74
2019-03-22T23:06:13.514Z,57.32
2019-03-22T23:08:44.785Z,57.10
2019-03-22T23:11:18.227Z,57.99
2019-03-22T23:13:49.613Z,57.53
2019-03-22T23:16:20.917Z,56.95
2019-03-22T23:19:03.715Z,57.61
2019-03-22T23:21:40.519Z,57.64
2019-03-22T23:24:13.967Z,57.62
2019-03-22T23:26:45.486Z,57.73
2019-03-22T23:29:18.148Z,58.27
2019-03-22T23:31:56.746Z,58.86
2019-03-22T23:34:31.101Z,57.91
2019-03-22T23:37:07.182Z,58.45
2019-03-22T23:40:03.987Z,57.95
2019-03-22T23:42:36.038Z,58.08
2019-03-22T23:45:19.313Z,58.90
2019-03-22T23:47:52.888Z,58.78
2019-03-22T23:50:29.928Z,59.09
2019-03-22T23:53:09.063Z,59.25
2019-03-22T23:56:05.395Z,59.03
2019-03-22T23:58:41.822Z,58.72
